Flight Track Log - Related Links

Times and Time Zones

All times are in EDT time to prevent confusion due to time zone crossing. See the SWA2278 flight status page for this flight to view local times or setup timezone preferences in your user account.

Time Position Orientation Groundspeed Altitude Reporting Facility
EDT Latitude Longitude Course Direction KTS MPH feet Rate Location/Type
Mon 11:38:23 AM 29.6314 -95.2919 151° Southeast 163 188 900  Level Houston Center
Mon 11:39:00 AM 29.6092 -95.2778 151° Southeast 199 229 1,900 2,308 Climbing Houston Center
Mon 11:39:28 AM 29.6178 -95.2514 69° East 246 283 3,400 2,656 Climbing Houston Center
Mon 11:40:01 AM 29.6619 -95.2353 18° North 293 337 4,600 2,419 Climbing Houston Center
Mon 11:40:30 AM 29.6958 -95.2356 360° North 289 333 5,900 2,835 Climbing Houston Center
Mon 11:41:32 AM 29.7817 -95.2572 348° North 311 358 8,900 2,516 Climbing Houston Center
Mon 11:42:34 AM 29.8719 -95.2794 348° North 325 374 11,100 2,565 Climbing Houston Center
Mon 11:43:36 AM 29.9639 -95.2383 21° North 353 406 14,200 2,468 Climbing Houston Center
Mon 11:44:38 AM 30.0553 -95.1850 27° Northeast 362 417 16,200 2,274 Climbing Houston Center
Mon 11:45:40 AM 30.1714 -95.1178 27° Northeast 383 441 18,900 2,323 Climbing Houston Center
Mon 11:46:42 AM 30.2714 -95.0594 27° Northeast 395 455 21,000 1,920 Climbing Houston Center
Mon 11:47:45 AM 30.3731 -94.9989 27° Northeast 407 468 22,900 1,776 Climbing Houston Center
Mon 11:48:47 AM 30.4775 -94.9372 27° Northeast 413 475 24,700 1,597 Climbing Houston Center
Mon 11:49:49 AM 30.5828 -94.8714 28° Northeast 427 491 26,200 1,452 Climbing Houston Center
Mon 11:50:51 AM 30.6864 -94.7897 34° Northeast 441 507 27,700 1,645 Climbing Houston Center
Mon 11:51:53 AM 30.8125 -94.6919 34° Northeast 452 520 29,600 1,548 Climbing Houston Center
Mon 11:52:55 AM 30.9181 -94.6106 33° Northeast 458 527 30,900 1,403 Climbing Houston Center
Mon 11:53:57 AM 31.0233 -94.5289 34° Northeast 459 528 32,500 1,041 Climbing Houston Center
Mon 11:54:56 AM 31.1325 -94.4406 35° Northeast 452 520 33,000 252 Climbing Fort Worth Center
Mon 11:55:56 AM 31.2350 -94.3644 32° Northeast 452 520 33,000  Level Fort Worth Center
Mon 11:56:56 AM 31.3436 -94.2781 34° Northeast 457 526 33,000  Level Fort Worth Center
Mon 11:57:56 AM 31.4519 -94.1942 33° Northeast 457 526 33,000 1,000 Level Fort Worth Center
Mon 11:58:56 AM 31.5586 -94.1125 33° Northeast 457 526 35,000  Climbing Fort Worth Center
Mon 11:59:56 AM 31.6628 -94.0306 34° Northeast 457 526 33,000 -1,000 Descending Fort Worth Center
Mon 12:00:56 PM 31.7731 -93.9433 34° Northeast 454 522 33,000 100 Level Fort Worth Center
Mon 12:01:56 PM 31.8814 -93.8611 33° Northeast 460 529 33,200 1,000 Climbing Fort Worth Center
Mon 12:02:56 PM 31.9833 -93.7764 35° Northeast 452 520 35,000 900 Climbing Fort Worth Center
Mon 12:03:56 PM 32.0856 -93.6964 34° Northeast 441 507 35,000  Level Fort Worth Center
Mon 12:04:56 PM 32.1883 -93.5717 46° Northeast 455 524 35,000  Level Fort Worth Center
Mon 12:05:56 PM 32.2789 -93.4622 46° Northeast 455 524 35,000  Level Fort Worth Center
Mon 12:06:56 PM 32.3692 -93.3525 46° Northeast 455 524 35,000  Level Fort Worth Center
Mon 12:07:56 PM 32.4617 -93.2403 46° Northeast 460 529 35,000  Level Fort Worth Center
Mon 12:08:56 PM 32.5458 -93.1378 46° Northeast 469 540 35,000  Level Fort Worth Center
Mon 12:09:56 PM 32.6358 -93.0275 46° Northeast 469 540 35,000  Level Fort Worth Center
Mon 12:10:56 PM 32.7278 -92.9142 46° Northeast 474 545 35,000  Level Fort Worth Center
Mon 12:11:56 PM 32.8178 -92.8036 46° Northeast 474 545 35,000  Level Fort Worth Center
Mon 12:12:56 PM 32.9097 -92.6900 46° Northeast 474 545 35,000  Level Fort Worth Center
Mon 12:13:56 PM 33.0014 -92.5786 46° Northeast 474 545 35,000  Level Fort Worth Center
Mon 12:14:56 PM 33.0908 -92.4647 47° Northeast 474 545 35,000  Level Fort Worth Center
Mon 12:16:32 PM 33.2394 -92.2847 45° Northeast 483 556 35,000  Level Memphis Center
Mon 12:17:32 PM 33.3311 -92.1672 47° Northeast 477 549 35,000  Level Memphis Center
Mon 12:18:32 PM 33.4244 -92.0572 45° Northeast 471 542 35,000  Level Memphis Center
Mon 12:19:32 PM 33.5136 -91.9419 47° Northeast 471 542 35,000  Level Memphis Center
Mon 12:20:32 PM 33.6028 -91.8261 47° Northeast 471 542 35,000  Level Memphis Center
Mon 12:21:32 PM 33.6936 -91.7128 46° Northeast 471 542 35,000  Level Memphis Center
Mon 12:22:32 PM 33.7783 -91.5992 48° Northeast 460 529 35,000  Level Memphis Center
Mon 12:23:32 PM 33.8797 -91.4706 46° Northeast 470 541 35,000  Level Memphis Center
Mon 12:24:32 PM 33.9725 -91.3567 45° Northeast 470 541 35,000  Level Memphis Center
Mon 12:25:32 PM 34.0528 -91.2522 47° Northeast 470 541 35,000  Level Memphis Center
Mon 12:26:32 PM 34.1411 -91.1353 48° Northeast 470 541 35,000  Level Memphis Center
Mon 12:27:32 PM 34.2317 -91.0153 48° Northeast 470 541 35,000  Level Memphis Center
Mon 12:28:32 PM 34.3217 -90.9028 46° Northeast 470 541 35,000  Level Memphis Center
Mon 12:29:32 PM 34.4119 -90.7850 47° Northeast 470 541 35,000  Level Memphis Center
Mon 12:30:32 PM 34.5042 -90.6672 46° Northeast 476 548 35,000  Level Memphis Center
Mon 12:31:32 PM 34.6003 -90.5361 48° Northeast 476 548 35,000  Level Memphis Center
Mon 12:32:32 PM 34.6922 -90.4153 47° Northeast 476 548 35,000  Level Memphis Center
Mon 12:33:32 PM 34.7819 -90.2964 47° Northeast 476 548 35,000  Level Memphis Center
Mon 12:34:32 PM 34.8717 -90.1775 47° Northeast 476 548 35,000  Level Memphis Center
Mon 12:35:32 PM 34.9653 -90.0606 46° Northeast 476 548 35,000  Level Memphis Center
Mon 12:36:32 PM 35.0464 -89.9486 48° Northeast 476 548 35,000  Level Memphis Center
Mon 12:37:32 PM 35.1333 -89.8239 50° Northeast 482 555 35,000  Level Memphis Center
Mon 12:38:32 PM 35.2225 -89.6986 49° Northeast 488 562 35,000  Level Memphis Center
Mon 12:39:32 PM 35.2969 -89.5683 55° Northeast 482 555 35,000  Level Memphis Center
Mon 12:40:32 PM 35.3436 -89.3950 72° East 477 549 35,000  Level Memphis Center
Mon 12:41:32 PM 35.3839 -89.2392 72° East 480 552 35,000 -500 Level Memphis Center
Mon 12:42:32 PM 35.4222 -89.0831 73° East 486 559 34,000 -1,050 Descending Memphis Center
Mon 12:43:32 PM 35.4600 -88.9297 73° East 471 542 32,900 -950 Descending Memphis Center
Mon 12:44:32 PM 35.4900 -88.8117 73° East 461 531 32,100 -950 Descending Memphis Center
Mon 12:45:32 PM 35.5317 -88.6503 72° East 456 525 31,000 -1,700 Descending Memphis Center
Mon 12:46:32 PM 35.5689 -88.4939 74° East 461 531 28,700 -1,600 Descending Memphis Center
Mon 12:47:32 PM 35.6083 -88.3447 72° East 461 531 27,800 -1,000 Descending Memphis Center
Mon 12:48:32 PM 35.6475 -88.1931 72° East 461 531 26,700 -1,850 Descending Memphis Center
Mon 12:49:32 PM 35.6842 -88.0286 75° East 456 525 24,100 -2,350 Descending Memphis Center
Mon 12:50:32 PM 35.7189 -87.8794 74° East 451 519 22,000 -1,950 Descending Memphis Center
Mon 12:51:32 PM 35.7517 -87.7556 72° East 441 507 20,200 -1,900 Descending Memphis Center
Mon 12:52:32 PM 35.7842 -87.6139 74° East 430 495 18,200 -2,050 Descending Memphis Center
Mon 12:53:32 PM 35.8208 -87.4844 71° East 410 472 16,100 -2,100 Descending Memphis Center
Mon 12:54:32 PM 35.8681 -87.3625 64° Northeast 399 459 14,000 -2,050 Descending Memphis Center
Mon 12:55:32 PM 35.9150 -87.2403 65° Northeast 392 451 12,000 -1,900 Descending Memphis Center
Mon 12:56:32 PM 35.9539 -87.1261 67° East 371 427 10,200 -1,300 Descending Memphis Center
Mon 12:57:32 PM 35.9989 -87.0217 62° Northeast 342 394 9,400 -1,250 Descending Memphis Center
Mon 12:58:32 PM 36.0381 -86.9250 63° Northeast 328 377 7,700 -1,500 Descending Memphis Center
Mon 12:59:32 PM 36.0831 -86.8206 62° Northeast 317 365 6,400 -1,200 Descending Memphis Center
Mon 01:00:32 PM 36.1506 -86.7789 26° Northeast 267 307 5,300 -1,250 Descending Memphis Center
Mon 01:01:32 PM 36.2186 -86.7503 19° North 261 300 3,900 -1,200 Descending Memphis Center
Mon 01:02:32 PM 36.2606 -86.6892 50° Northeast 225 259 2,900 -600 Descending Memphis Center
Mon 01:03:32 PM 36.2483 -86.6281 104° East 177 204 2,700 -350 Descending Memphis Center
Mon 01:04:32 PM 36.2094 -86.6478 202° Southwest 89 102 2,200 -700 Descending Memphis Center
Mon 01:05:32 PM 36.1744 -86.6647 201° Southwest 125 144 1,300 -800 Descending Memphis Center
Mon 01:06:32 PM 36.1372 -86.6767 195° South 135 155 600 -350 Descending Memphis Center
Mon 01:07:32 PM 36.1064 -86.6911 201° Southwest 135 155 600  Level Memphis Center
Mon 01:09:00 PM 36.1167 -86.6667 39° Northeast  Level FlightAware Approximate
Mon 01:16:00 PM 36.1245 -86.6782 39° Northeast  Level Estimated
Mon 01:17:00 PM 36.1245 -86.6782 39° Northeast  Level Estimated
Mon 01:18:00 PM 36.1245 -86.6782 39° Northeast  Level Estimated
Mon 01:19:00 PM 36.1245 -86.6782 39° Northeast  Level Estimated
Mon 01:20:00 PM 36.1245 -86.6782 39° Northeast  Level Estimated
Mon 01:21:00 PM 36.1245 -86.6782 39° Northeast  Level Estimated
Mon 01:22:00 PM 36.1245 -86.6782 39° Northeast  Level Estimated
Mon 01:23:00 PM 36.1245 -86.6782 39° Northeast  Level Estimated
Mon 01:24:00 PM 36.1245 -86.6782 39° Northeast  Level Estimated

Login

Don't have an account? Register now (free) for customized features, flight alerts, and more!